Enterprise, Florida
Current Conditions -  °F | °C
As of 9:53 PM on Monday 20 Oct 2014 (Local Time) from KSFB Reporting Station
Clear Clear  
Wind Chill: 74°   Ceiling: Unl
Heat Index: 74°   Visibility: 10mi
Dew Point: 68°   Wind: 3mph
Humidity: 82%   Direction: 100°E
Pressure: 29.99"   Gusts: NA
Location:  28.9054°N, 81.2458°W
Report Text: KSFB 210153Z 10003KT 10SM CLR 23/20 A2999 RMK AO2 SLP154 T02330200
Loading
Personal Weather Stations






























Interactive Weather Map
Tropical Storm Tracking
New forecast layout! Learn more

10-Day Weather Forecast

Advertisements
Track Severe Weather on mobile